sensor_id;sensor_type;location;lat;lon;timestamp;pressure;altitude;pressure_sealevel;temperature;humidity
61205;BME280;47068;55.780;37.520;2024-03-08T00:00:52;100010.03;;;-2.07;60.04
61205;BME280;47068;55.780;37.520;2024-03-08T00:03:17;100004.09;;;-2.09;60.46
61205;BME280;47068;55.780;37.520;2024-03-08T00:05:42;100005.31;;;-2.16;59.99
61205;BME280;47068;55.780;37.520;2024-03-08T00:08:08;100007.22;;;-2.19;60.47
61205;BME280;47068;55.780;37.520;2024-03-08T00:10:35;99993.69;;;-2.27;60.20
61205;BME280;47068;55.780;37.520;2024-03-08T00:13:00;99983.44;;;-2.30;60.57
61205;BME280;47068;55.780;37.520;2024-03-08T00:15:25;99986.84;;;-2.28;60.63
61205;BME280;47068;55.780;37.520;2024-03-08T00:17:51;99974.72;;;-2.29;59.91
61205;BME280;47068;55.780;37.520;2024-03-08T00:20:16;99977.53;;;-2.34;60.22
61205;BME280;47068;55.780;37.520;2024-03-08T00:22:43;99976.31;;;-2.44;60.19
61205;BME280;47068;55.780;37.520;2024-03-08T00:25:08;99971.09;;;-2.44;60.28
61205;BME280;47068;55.780;37.520;2024-03-08T00:27:34;99962.50;;;-2.46;60.46
61205;BME280;47068;55.780;37.520;2024-03-08T00:29:59;99967.72;;;-2.46;60.48
61205;BME280;47068;55.780;37.520;2024-03-08T00:32:25;99957.31;;;-2.46;60.76
61205;BME280;47068;55.780;37.520;2024-03-08T00:34:51;99957.00;;;-2.40;60.33
61205;BME280;47068;55.780;37.520;2024-03-08T00:37:22;99960.38;;;-2.38;60.48
61205;BME280;47068;55.780;37.520;2024-03-08T00:39:51;99953.72;;;-2.44;61.04
61205;BME280;47068;55.780;37.520;2024-03-08T00:42:19;99949.50;;;-2.46;60.79
61205;BME280;47068;55.780;37.520;2024-03-08T00:44:45;99941.53;;;-2.43;60.94
61205;BME280;47068;55.780;37.520;2024-03-08T00:47:10;99947.41;;;-2.40;61.27
61205;BME280;47068;55.780;37.520;2024-03-08T00:49:36;99944.28;;;-2.29;60.58
61205;BME280;47068;55.780;37.520;2024-03-08T00:52:04;99944.34;;;-2.13;61.15
61205;BME280;47068;55.780;37.520;2024-03-08T00:54:33;99938.72;;;-2.06;60.68
61205;BME280;47068;55.780;37.520;2024-03-08T00:56:58;99933.97;;;-1.98;60.21
61205;BME280;47068;55.780;37.520;2024-03-08T00:59:25;99932.81;;;-1.92;60.08
61205;BME280;47068;55.780;37.520;2024-03-08T01:01:50;99925.69;;;-1.88;60.21
61205;BME280;47068;55.780;37.520;2024-03-08T01:04:16;99918.78;;;-1.89;59.94
61205;BME280;47068;55.780;37.520;2024-03-08T01:06:42;99907.59;;;-1.91;59.57
61205;BME280;47068;55.780;37.520;2024-03-08T01:09:11;99907.13;;;-2.00;60.02
61205;BME280;47068;55.780;37.520;2024-03-08T01:11:36;99912.75;;;-2.07;60.04
61205;BME280;47068;55.780;37.520;2024-03-08T01:14:03;99910.31;;;-2.10;60.35
61205;BME280;47068;55.780;37.520;2024-03-08T01:16:28;99913.91;;;-2.13;60.60
61205;BME280;47068;55.780;37.520;2024-03-08T01:18:53;99915.78;;;-2.15;60.25
61205;BME280;47068;55.780;37.520;2024-03-08T01:21:19;99907.94;;;-2.15;60.41
61205;BME280;47068;55.780;37.520;2024-03-08T01:23:45;99908.03;;;-2.16;61.03
61205;BME280;47068;55.780;37.520;2024-03-08T01:26:10;99913.00;;;-2.12;60.79
61205;BME280;47068;55.780;37.520;2024-03-08T01:28:36;99906.22;;;-1.99;60.87
61205;BME280;47068;55.780;37.520;2024-03-08T01:31:02;99917.53;;;-1.82;60.54
61205;BME280;47068;55.780;37.520;2024-03-08T01:33:29;99916.72;;;-1.67;60.09
61205;BME280;47068;55.780;37.520;2024-03-08T01:35:55;99913.63;;;-1.58;59.39
61205;BME280;47068;55.780;37.520;2024-03-08T01:38:22;99913.47;;;-1.55;59.46
61205;BME280;47068;55.780;37.520;2024-03-08T01:40:47;99904.94;;;-1.59;59.47
61205;BME280;47068;55.780;37.520;2024-03-08T01:43:19;99898.88;;;-1.59;59.11
61205;BME280;47068;55.780;37.520;2024-03-08T01:45:45;99900.75;;;-1.61;58.87
61205;BME280;47068;55.780;37.520;2024-03-08T01:48:10;99897.56;;;-1.66;58.83
61205;BME280;47068;55.780;37.520;2024-03-08T01:50:35;99900.97;;;-1.81;59.47
61205;BME280;47068;55.780;37.520;2024-03-08T01:53:01;99896.88;;;-2.03;59.17
61205;BME280;47068;55.780;37.520;2024-03-08T01:55:27;99905.41;;;-2.16;60.19
61205;BME280;47068;55.780;37.520;2024-03-08T01:57:52;99901.25;;;-2.20;60.10
61205;BME280;47068;55.780;37.520;2024-03-08T02:00:18;99904.25;;;-2.28;60.85
61205;BME280;47068;55.780;37.520;2024-03-08T02:02:44;99902.22;;;-2.39;61.15
61205;BME280;47068;55.780;37.520;2024-03-08T02:05:11;99914.78;;;-2.47;60.90
61205;BME280;47068;55.780;37.520;2024-03-08T02:07:40;99905.75;;;-2.57;61.29
61205;BME280;47068;55.780;37.520;2024-03-08T02:10:08;99885.06;;;-2.60;62.04
61205;BME280;47068;55.780;37.520;2024-03-08T02:12:34;99886.81;;;-2.60;61.59
61205;BME280;47068;55.780;37.520;2024-03-08T02:14:59;99882.63;;;-2.63;62.00
61205;BME280;47068;55.780;37.520;2024-03-08T02:17:25;99884.06;;;-2.74;61.97
61205;BME280;47068;55.780;37.520;2024-03-08T02:19:50;99884.22;;;-2.78;62.24
61205;BME280;47068;55.780;37.520;2024-03-08T02:22:15;99885.88;;;-2.77;62.43
61205;BME280;47068;55.780;37.520;2024-03-08T02:24:41;99887.56;;;-2.75;61.85
61205;BME280;47068;55.780;37.520;2024-03-08T02:27:06;99883.97;;;-2.73;62.51
61205;BME280;47068;55.780;37.520;2024-03-08T02:29:31;99889.13;;;-2.71;61.80
61205;BME280;47068;55.780;37.520;2024-03-08T02:31:58;99882.22;;;-2.72;62.68
61205;BME280;47068;55.780;37.520;2024-03-08T02:34:23;99883.19;;;-2.75;62.05
61205;BME280;47068;55.780;37.520;2024-03-08T02:36:48;99880.53;;;-2.73;62.26
61205;BME280;47068;55.780;37.520;2024-03-08T02:39:13;99883.75;;;-2.68;62.43
61205;BME280;47068;55.780;37.520;2024-03-08T02:41:39;99882.91;;;-2.69;62.07
61205;BME280;47068;55.780;37.520;2024-03-08T02:44:04;99884.22;;;-2.60;62.72
61205;BME280;47068;55.780;37.520;2024-03-08T02:46:30;99876.94;;;-2.54;62.48
61205;BME280;47068;55.780;37.520;2024-03-08T02:48:55;99872.81;;;-2.58;61.76
61205;BME280;47068;55.780;37.520;2024-03-08T02:51:21;99877.94;;;-2.56;62.34
61205;BME280;47068;55.780;37.520;2024-03-08T02:53:46;99873.19;;;-2.65;62.14
61205;BME280;47068;55.780;37.520;2024-03-08T02:56:14;99876.59;;;-2.82;62.60
61205;BME280;47068;55.780;37.520;2024-03-08T02:58:41;99860.28;;;-3.03;62.25
61205;BME280;47068;55.780;37.520;2024-03-08T03:01:07;99860.75;;;-3.12;63.52
61205;BME280;47068;55.780;37.520;2024-03-08T03:03:33;99872.06;;;-3.13;63.72
61205;BME280;47068;55.780;37.520;2024-03-08T03:05:58;99865.84;;;-3.10;63.95
61205;BME280;47068;55.780;37.520;2024-03-08T03:08:24;99859.06;;;-3.13;63.71
61205;BME280;47068;55.780;37.520;2024-03-08T03:10:49;99858.72;;;-3.24;63.51
61205;BME280;47068;55.780;37.520;2024-03-08T03:13:14;99851.50;;;-3.36;64.30
61205;BME280;47068;55.780;37.520;2024-03-08T03:15:40;99857.00;;;-3.42;64.53
61205;BME280;47068;55.780;37.520;2024-03-08T03:18:08;99852.50;;;-3.58;65.18
61205;BME280;47068;55.780;37.520;2024-03-08T03:20:33;99842.88;;;-3.55;65.04
61205;BME280;47068;55.780;37.520;2024-03-08T03:23:05;99843.94;;;-3.41;64.88
61205;BME280;47068;55.780;37.520;2024-03-08T03:25:31;99845.38;;;-3.35;64.59
61205;BME280;47068;55.780;37.520;2024-03-08T03:28:03;99842.25;;;-3.25;65.64
61205;BME280;47068;55.780;37.520;2024-03-08T03:30:29;99828.31;;;-3.05;65.46
61205;BME280;47068;55.780;37.520;2024-03-08T03:33:00;99827.91;;;-2.97;64.04
61205;BME280;47068;55.780;37.520;2024-03-08T03:35:26;99829.81;;;-3.01;64.50
61205;BME280;47068;55.780;37.520;2024-03-08T03:37:52;99828.75;;;-2.97;64.33
61205;BME280;47068;55.780;37.520;2024-03-08T03:40:30;99827.69;;;-2.93;63.99
61205;BME280;47068;55.780;37.520;2024-03-08T03:42:56;99828.22;;;-2.86;64.45
61205;BME280;47068;55.780;37.520;2024-03-08T03:45:21;99831.75;;;-2.87;64.41
61205;BME280;47068;55.780;37.520;2024-03-08T03:47:47;99827.06;;;-2.81;64.15
61205;BME280;47068;55.780;37.520;2024-03-08T03:50:12;99836.03;;;-2.69;64.02
61205;BME280;47068;55.780;37.520;2024-03-08T03:52:38;99827.69;;;-2.75;63.84
61205;BME280;47068;55.780;37.520;2024-03-08T03:55:04;99830.22;;;-2.74;63.91
61205;BME280;47068;55.780;37.520;2024-03-08T03:57:29;99833.53;;;-2.70;64.51
61205;BME280;47068;55.780;37.520;2024-03-08T03:59:55;99829.97;;;-2.69;63.90
61205;BME280;47068;55.780;37.520;2024-03-08T04:02:20;99824.63;;;-2.66;64.16
61205;BME280;47068;55.780;37.520;2024-03-08T04:04:46;99824.31;;;-2.60;63.96
61205;BME280;47068;55.780;37.520;2024-03-08T04:07:11;99823.53;;;-2.62;64.54
61205;BME280;47068;55.780;37.520;2024-03-08T04:09:37;99816.25;;;-2.56;64.34
61205;BME280;47068;55.780;37.520;2024-03-08T04:12:02;99815.25;;;-2.53;63.92
61205;BME280;47068;55.780;37.520;2024-03-08T04:14:27;99813.09;;;-2.45;64.04
61205;BME280;47068;55.780;37.520;2024-03-08T04:16:53;99805.28;;;-2.45;64.33
61205;BME280;47068;55.780;37.520;2024-03-08T04:19:18;99805.81;;;-2.39;64.01
61205;BME280;47068;55.780;37.520;2024-03-08T04:21:44;99807.44;;;-2.36;63.66
61205;BME280;47068;55.780;37.520;2024-03-08T04:24:09;99810.63;;;-2.31;63.65
61205;BME280;47068;55.780;37.520;2024-03-08T04:26:35;99807.84;;;-2.28;63.57
61205;BME280;47068;55.780;37.520;2024-03-08T04:29:01;99814.84;;;-2.28;63.80
61205;BME280;47068;55.780;37.520;2024-03-08T04:31:26;99808.03;;;-2.31;63.76
61205;BME280;47068;55.780;37.520;2024-03-08T04:33:51;99807.31;;;-2.34;63.39
61205;BME280;47068;55.780;37.520;2024-03-08T04:36:17;99803.22;;;-2.39;64.22
61205;BME280;47068;55.780;37.520;2024-03-08T04:38:42;99812.72;;;-2.38;63.63
61205;BME280;47068;55.780;37.520;2024-03-08T04:41:08;99805.66;;;-2.35;63.88
61205;BME280;47068;55.780;37.520;2024-03-08T04:43:33;99802.03;;;-2.33;64.10
61205;BME280;47068;55.780;37.520;2024-03-08T04:45:59;99801.44;;;-2.38;64.12
61205;BME280;47068;55.780;37.520;2024-03-08T04:48:25;99799.59;;;-2.36;64.43
61205;BME280;47068;55.780;37.520;2024-03-08T04:50:53;99802.94;;;-2.34;64.18
61205;BME280;47068;55.780;37.520;2024-03-08T04:53:18;99799.50;;;-2.34;64.57
61205;BME280;47068;55.780;37.520;2024-03-08T04:55:44;99796.56;;;-2.44;65.28
61205;BME280;47068;55.780;37.520;2024-03-08T04:58:09;99802.94;;;-2.67;65.98
61205;BME280;47068;55.780;37.520;2024-03-08T05:00:35;99792.78;;;-2.71;66.46
61205;BME280;47068;55.780;37.520;2024-03-08T05:03:00;99790.31;;;-2.74;66.24
61205;BME280;47068;55.780;37.520;2024-03-08T05:05:25;99785.94;;;-2.74;67.23
61205;BME280;47068;55.780;37.520;2024-03-08T05:07:53;99774.75;;;-2.59;67.08
61205;BME280;47068;55.780;37.520;2024-03-08T05:10:18;99775.28;;;-2.52;67.10
61205;BME280;47068;55.780;37.520;2024-03-08T05:12:44;99780.47;;;-2.52;67.17
61205;BME280;47068;55.780;37.520;2024-03-08T05:15:09;99770.66;;;-2.47;67.12
61205;BME280;47068;55.780;37.520;2024-03-08T05:17:34;99780.75;;;-2.41;67.22
61205;BME280;47068;55.780;37.520;2024-03-08T05:20:00;99771.09;;;-2.39;66.95
61205;BME280;47068;55.780;37.520;2024-03-08T05:22:25;99761.13;;;-2.31;67.43
61205;BME280;47068;55.780;37.520;2024-03-08T05:24:51;99753.81;;;-2.24;66.69
61205;BME280;47068;55.780;37.520;2024-03-08T05:27:16;99758.44;;;-2.14;67.14
61205;BME280;47068;55.780;37.520;2024-03-08T05:29:42;99761.72;;;-2.10;66.67
61205;BME280;47068;55.780;37.520;2024-03-08T05:32:07;99762.38;;;-2.07;66.04
61205;BME280;47068;55.780;37.520;2024-03-08T05:34:32;99756.44;;;-2.09;66.04
61205;BME280;47068;55.780;37.520;2024-03-08T05:36:58;99767.09;;;-2.13;66.24
61205;BME280;47068;55.780;37.520;2024-03-08T05:39:23;99765.50;;;-2.16;66.27
61205;BME280;47068;55.780;37.520;2024-03-08T05:41:49;99762.38;;;-2.07;67.28
61205;BME280;47068;55.780;37.520;2024-03-08T05:44:15;99764.59;;;-1.99;66.76
61205;BME280;47068;55.780;37.520;2024-03-08T05:46:44;99762.38;;;-2.07;66.37
61205;BME280;47068;55.780;37.520;2024-03-08T05:49:09;99767.59;;;-2.07;67.22
61205;BME280;47068;55.780;37.520;2024-03-08T05:51:39;99757.69;;;-2.00;66.21
61205;BME280;47068;55.780;37.520;2024-03-08T05:54:05;99769.91;;;-2.01;66.85
61205;BME280;47068;55.780;37.520;2024-03-08T05:56:31;99765.75;;;-2.05;66.95
61205;BME280;47068;55.780;37.520;2024-03-08T05:58:57;99763.75;;;-2.00;66.98
61205;BME280;47068;55.780;37.520;2024-03-08T06:01:23;99765.09;;;-1.92;67.43
61205;BME280;47068;55.780;37.520;2024-03-08T06:03:49;99766.28;;;-1.82;66.84
61205;BME280;47068;55.780;37.520;2024-03-08T06:06:14;99764.84;;;-1.72;66.56
61205;BME280;47068;55.780;37.520;2024-03-08T06:08:43;99755.59;;;-1.62;66.38
61205;BME280;47068;55.780;37.520;2024-03-08T06:11:08;99756.34;;;-1.60;65.32
61205;BME280;47068;55.780;37.520;2024-03-08T06:13:34;99763.56;;;-1.65;65.95
61205;BME280;47068;55.780;37.520;2024-03-08T06:15:59;99757.50;;;-1.66;65.57
61205;BME280;47068;55.780;37.520;2024-03-08T06:18:25;99763.56;;;-1.65;65.66
61205;BME280;47068;55.780;37.520;2024-03-08T06:20:51;99758.59;;;-1.54;65.92
61205;BME280;47068;55.780;37.520;2024-03-08T06:23:16;99763.06;;;-1.40;65.46
61205;BME280;47068;55.780;37.520;2024-03-08T06:25:45;99757.59;;;-1.22;65.48
61205;BME280;47068;55.780;37.520;2024-03-08T06:28:11;99759.28;;;-1.21;64.35
61205;BME280;47068;55.780;37.520;2024-03-08T06:30:36;99762.66;;;-1.18;64.25
61205;BME280;47068;55.780;37.520;2024-03-08T06:33:01;99758.53;;;-1.23;63.78
61205;BME280;47068;55.780;37.520;2024-03-08T06:35:27;99756.13;;;-1.26;63.78
61205;BME280;47068;55.780;37.520;2024-03-08T06:37:52;99749.56;;;-1.33;63.96
61205;BME280;47068;55.780;37.520;2024-03-08T06:40:18;99748.84;;;-1.21;64.21
61205;BME280;47068;55.780;37.520;2024-03-08T06:42:43;99744.59;;;-1.07;64.07
61205;BME280;47068;55.780;37.520;2024-03-08T06:45:08;99746.56;;;-0.97;63.89
61205;BME280;47068;55.780;37.520;2024-03-08T06:47:35;99745.91;;;-1.00;63.82
61205;BME280;47068;55.780;37.520;2024-03-08T06:50:00;99737.44;;;-0.90;63.86
61205;BME280;47068;55.780;37.520;2024-03-08T06:52:26;99744.56;;;-0.77;63.39
61205;BME280;47068;55.780;37.520;2024-03-08T06:54:51;99748.38;;;-0.69;62.78
61205;BME280;47068;55.780;37.520;2024-03-08T06:57:17;99746.38;;;-0.64;62.87
61205;BME280;47068;55.780;37.520;2024-03-08T06:59:43;99744.59;;;-0.49;62.25
61205;BME280;47068;55.780;37.520;2024-03-08T07:02:08;99730.78;;;-0.37;62.21
61205;BME280;47068;55.780;37.520;2024-03-08T07:04:34;99742.72;;;-0.47;62.15
61205;BME280;47068;55.780;37.520;2024-03-08T07:07:03;99738.25;;;-0.45;62.41
61205;BME280;47068;55.780;37.520;2024-03-08T07:09:29;99738.31;;;-0.32;62.50
61205;BME280;47068;55.780;37.520;2024-03-08T07:11:54;99742.44;;;-0.14;61.92
61205;BME280;47068;55.780;37.520;2024-03-08T07:14:22;99741.84;;;-0.05;61.35
61205;BME280;47068;55.780;37.520;2024-03-08T07:16:48;99741.22;;;-0.09;60.74
61205;BME280;47068;55.780;37.520;2024-03-08T07:19:14;99747.66;;;0.00;61.37
61205;BME280;47068;55.780;37.520;2024-03-08T07:21:40;99745.47;;;0.07;61.16
61205;BME280;47068;55.780;37.520;2024-03-08T07:24:07;99734.41;;;0.16;61.31
61205;BME280;47068;55.780;37.520;2024-03-08T07:26:52;99736.41;;;0.39;60.96
61205;BME280;47068;55.780;37.520;2024-03-08T07:29:18;99744.41;;;0.50;60.08
61205;BME280;47068;55.780;37.520;2024-03-08T07:31:43;99749.53;;;0.52;59.86
61205;BME280;47068;55.780;37.520;2024-03-08T07:34:27;99740.84;;;0.51;59.38
61205;BME280;47068;55.780;37.520;2024-03-08T07:36:53;99742.84;;;0.48;59.12
61205;BME280;47068;55.780;37.520;2024-03-08T07:39:18;99747.94;;;0.49;58.84
61205;BME280;47068;55.780;37.520;2024-03-08T07:41:44;99743.03;;;0.45;59.15
61205;BME280;47068;55.780;37.520;2024-03-08T07:44:09;99748.97;;;0.61;59.28
61205;BME280;47068;55.780;37.520;2024-03-08T07:46:35;99745.72;;;0.70;59.18
61205;BME280;47068;55.780;37.520;2024-03-08T07:49:01;99741.72;;;0.64;58.31
61205;BME280;47068;55.780;37.520;2024-03-08T07:51:28;99739.63;;;0.69;59.33
61205;BME280;47068;55.780;37.520;2024-03-08T07:53:53;99730.16;;;0.81;59.23
61205;BME280;47068;55.780;37.520;2024-03-08T07:56:19;99728.19;;;0.97;58.47
61205;BME280;47068;55.780;37.520;2024-03-08T07:58:46;99730.63;;;1.26;58.14
61205;BME280;47068;55.780;37.520;2024-03-08T08:01:16;99729.78;;;1.50;57.16
61205;BME280;47068;55.780;37.520;2024-03-08T08:03:41;99716.88;;;1.60;57.11
61205;BME280;47068;55.780;37.520;2024-03-08T08:06:07;99711.94;;;1.68;56.54
61205;BME280;47068;55.780;37.520;2024-03-08T08:08:32;99722.41;;;1.68;56.81
61205;BME280;47068;55.780;37.520;2024-03-08T08:10:58;99718.22;;;1.78;56.49
61205;BME280;47068;55.780;37.520;2024-03-08T08:13:23;99714.53;;;1.81;56.64
61205;BME280;47068;55.780;37.520;2024-03-08T08:15:49;99716.72;;;1.87;56.85
61205;BME280;47068;55.780;37.520;2024-03-08T08:18:14;99716.19;;;1.94;56.07
61205;BME280;47068;55.780;37.520;2024-03-08T08:20:39;99718.94;;;1.93;56.18
61205;BME280;47068;55.780;37.520;2024-03-08T08:23:05;99713.78;;;1.91;56.37
61205;BME280;47068;55.780;37.520;2024-03-08T08:25:31;99712.84;;;1.92;56.73
61205;BME280;47068;55.780;37.520;2024-03-08T08:27:59;99718.25;;;2.02;56.33
61205;BME280;47068;55.780;37.520;2024-03-08T08:30:24;99706.91;;;2.02;56.50
61205;BME280;47068;55.780;37.520;2024-03-08T08:32:50;99708.16;;;2.09;55.71
61205;BME280;47068;55.780;37.520;2024-03-08T08:35:15;99714.53;;;2.17;55.63
61205;BME280;47068;55.780;37.520;2024-03-08T08:37:41;99709.88;;;2.33;56.26
61205;BME280;47068;55.780;37.520;2024-03-08T08:40:06;99713.41;;;2.56;54.88
61205;BME280;47068;55.780;37.520;2024-03-08T08:42:38;99710.72;;;2.34;55.19
61205;BME280;47068;55.780;37.520;2024-03-08T08:45:04;99713.16;;;2.24;55.56
61205;BME280;47068;55.780;37.520;2024-03-08T08:47:33;99706.41;;;2.33;55.58
61205;BME280;47068;55.780;37.520;2024-03-08T08:49:58;99712.41;;;2.35;56.05
61205;BME280;47068;55.780;37.520;2024-03-08T08:52:24;99708.53;;;2.28;55.72
61205;BME280;47068;55.780;37.520;2024-03-08T08:54:51;99709.19;;;2.19;56.38
61205;BME280;47068;55.780;37.520;2024-03-08T08:57:16;99713.53;;;2.07;56.26
61205;BME280;47068;55.780;37.520;2024-03-08T08:59:42;99704.53;;;1.98;57.17
61205;BME280;47068;55.780;37.520;2024-03-08T09:02:07;99706.13;;;1.88;57.55
61205;BME280;47068;55.780;37.520;2024-03-08T09:04:34;99704.78;;;1.83;58.09
61205;BME280;47068;55.780;37.520;2024-03-08T09:07:00;99687.66;;;1.90;57.82
61205;BME280;47068;55.780;37.520;2024-03-08T09:09:27;99692.66;;;2.06;58.24
61205;BME280;47068;55.780;37.520;2024-03-08T09:11:52;99688.94;;;2.21;57.94
61205;BME280;47068;55.780;37.520;2024-03-08T09:14:19;99689.53;;;2.24;57.43
61205;BME280;47068;55.780;37.520;2024-03-08T09:16:45;99687.78;;;2.36;57.32
61205;BME280;47068;55.780;37.520;2024-03-08T09:19:12;99695.41;;;2.63;56.74
61205;BME280;47068;55.780;37.520;2024-03-08T09:21:38;99693.59;;;2.76;55.82
61205;BME280;47068;55.780;37.520;2024-03-08T09:24:05;99681.22;;;3.00;55.60
61205;BME280;47068;55.780;37.520;2024-03-08T09:26:31;99683.28;;;3.30;54.96
61205;BME280;47068;55.780;37.520;2024-03-08T09:28:58;99691.69;;;3.58;54.42
61205;BME280;47068;55.780;37.520;2024-03-08T09:31:23;99689.28;;;3.66;53.59
61205;BME280;47068;55.780;37.520;2024-03-08T09:33:49;99686.78;;;3.64;53.59
61205;BME280;47068;55.780;37.520;2024-03-08T09:36:15;99691.09;;;3.65;53.73
61205;BME280;47068;55.780;37.520;2024-03-08T09:38:41;99687.72;;;3.63;53.95
61205;BME280;47068;55.780;37.520;2024-03-08T09:41:06;99680.66;;;3.64;53.78
61205;BME280;47068;55.780;37.520;2024-03-08T09:43:31;99685.91;;;3.75;53.90
61205;BME280;47068;55.780;37.520;2024-03-08T09:45:57;99684.25;;;3.74;53.59
61205;BME280;47068;55.780;37.520;2024-03-08T09:48:23;99680.06;;;3.71;53.71
61205;BME280;47068;55.780;37.520;2024-03-08T09:50:48;99688.91;;;3.81;53.90
61205;BME280;47068;55.780;37.520;2024-03-08T09:53:14;99683.75;;;3.91;53.65
61205;BME280;47068;55.780;37.520;2024-03-08T09:55:39;99686.63;;;3.88;53.22
61205;BME280;47068;55.780;37.520;2024-03-08T09:58:13;99670.97;;;3.86;53.09
61205;BME280;47068;55.780;37.520;2024-03-08T10:00:57;99670.00;;;3.87;52.83
61205;BME280;47068;55.780;37.520;2024-03-08T10:03:27;99672.50;;;3.89;53.23
61205;BME280;47068;55.780;37.520;2024-03-08T10:05:55;99678.50;;;3.91;53.25
61205;BME280;47068;55.780;37.520;2024-03-08T10:08:23;99674.19;;;3.90;53.52
61205;BME280;47068;55.780;37.520;2024-03-08T10:10:50;99678.00;;;3.97;53.39
61205;BME280;47068;55.780;37.520;2024-03-08T10:13:16;99672.00;;;3.95;53.64
61205;BME280;47068;55.780;37.520;2024-03-08T10:15:44;99667.63;;;3.84;53.45
61205;BME280;47068;55.780;37.520;2024-03-08T10:18:10;99670.97;;;3.75;53.77
61205;BME280;47068;55.780;37.520;2024-03-08T10:20:35;99677.31;;;3.62;53.98
61205;BME280;47068;55.780;37.520;2024-03-08T10:23:01;99668.00;;;3.58;54.06
61205;BME280;47068;55.780;37.520;2024-03-08T10:25:28;99667.50;;;3.41;54.49
61205;BME280;47068;55.780;37.520;2024-03-08T10:27:55;99673.75;;;3.51;54.67
61205;BME280;47068;55.780;37.520;2024-03-08T10:30:20;99672.19;;;3.49;55.14
61205;BME280;47068;55.780;37.520;2024-03-08T10:32:46;99674.56;;;3.63;54.80
61205;BME280;47068;55.780;37.520;2024-03-08T10:35:12;99676.13;;;3.66;54.59
61205;BME280;47068;55.780;37.520;2024-03-08T10:37:47;99669.16;;;3.76;54.50
61205;BME280;47068;55.780;37.520;2024-03-08T10:40:15;99675.88;;;3.69;54.53
61205;BME280;47068;55.780;37.520;2024-03-08T10:45:23;99671.69;;;3.33;55.47
61205;BME280;47068;55.780;37.520;2024-03-08T10:47:55;99672.16;;;3.27;55.40
61205;BME280;47068;55.780;37.520;2024-03-08T10:50:24;99677.53;;;3.25;56.54
61205;BME280;47068;55.780;37.520;2024-03-08T10:52:51;99667.16;;;3.24;56.03
61205;BME280;47068;55.780;37.520;2024-03-08T10:55:17;99684.97;;;3.31;56.35
61205;BME280;47068;55.780;37.520;2024-03-08T10:57:43;99676.84;;;3.23;56.02
61205;BME280;47068;55.780;37.520;2024-03-08T11:00:08;99664.50;;;3.12;56.05
61205;BME280;47068;55.780;37.520;2024-03-08T11:02:36;99663.22;;;3.29;56.71
61205;BME280;47068;55.780;37.520;2024-03-08T11:05:04;99665.59;;;3.54;56.41
61205;BME280;47068;55.780;37.520;2024-03-08T11:07:33;99668.09;;;3.67;55.43
61205;BME280;47068;55.780;37.520;2024-03-08T11:10:02;99660.44;;;3.75;55.10
61205;BME280;47068;55.780;37.520;2024-03-08T11:12:36;99654.84;;;3.80;55.24
61205;BME280;47068;55.780;37.520;2024-03-08T11:15:02;99652.78;;;3.83;54.94
61205;BME280;47068;55.780;37.520;2024-03-08T11:20:02;99657.47;;;3.69;54.46
61205;BME280;47068;55.780;37.520;2024-03-08T11:22:33;99653.66;;;3.73;54.88
61205;BME280;47068;55.780;37.520;2024-03-08T11:25:05;99653.84;;;3.81;54.24
61205;BME280;47068;55.780;37.520;2024-03-08T11:27:37;99658.75;;;3.85;54.39
61205;BME280;47068;55.780;37.520;2024-03-08T11:30:03;99657.78;;;3.97;54.52
61205;BME280;47068;55.780;37.520;2024-03-08T11:32:50;99656.97;;;3.86;54.40
61205;BME280;47068;55.780;37.520;2024-03-08T11:35:22;99653.63;;;3.84;54.79
61205;BME280;47068;55.780;37.520;2024-03-08T11:37:51;99653.56;;;4.06;53.97
61205;BME280;47068;55.780;37.520;2024-03-08T11:40:16;99655.44;;;4.15;53.99
61205;BME280;47068;55.780;37.520;2024-03-08T11:42:45;99664.34;;;4.14;53.83
61205;BME280;47068;55.780;37.520;2024-03-08T11:45:16;99656.28;;;4.16;53.46
61205;BME280;47068;55.780;37.520;2024-03-08T11:47:45;99641.25;;;3.95;53.62
61205;BME280;47068;55.780;37.520;2024-03-08T11:50:13;99640.69;;;3.81;54.27
61205;BME280;47068;55.780;37.520;2024-03-08T11:52:39;99660.09;;;3.80;54.42
61205;BME280;47068;55.780;37.520;2024-03-08T11:55:05;99647.28;;;3.75;54.26
61205;BME280;47068;55.780;37.520;2024-03-08T11:57:31;99653.38;;;3.76;54.89
61205;BME280;47068;55.780;37.520;2024-03-08T11:59:57;99650.97;;;3.84;54.64
61205;BME280;47068;55.780;37.520;2024-03-08T12:02:23;99652.41;;;3.99;54.18
61205;BME280;47068;55.780;37.520;2024-03-08T12:04:56;99649.03;;;3.97;54.22
61205;BME280;47068;55.780;37.520;2024-03-08T12:07:22;99651.94;;;3.94;54.13
61205;BME280;47068;55.780;37.520;2024-03-08T12:12:37;99666.81;;;4.16;53.75
61205;BME280;47068;55.780;37.520;2024-03-08T12:15:04;99653.53;;;4.17;53.20
61205;BME280;47068;55.780;37.520;2024-03-08T12:17:29;99654.63;;;4.15;53.73
61205;BME280;47068;55.780;37.520;2024-03-08T12:19:57;99654.25;;;4.19;53.73
61205;BME280;47068;55.780;37.520;2024-03-08T12:22:25;99670.78;;;4.21;54.24
61205;BME280;47068;55.780;37.520;2024-03-08T12:25:12;99665.00;;;4.27;53.47
61205;BME280;47068;55.780;37.520;2024-03-08T12:27:39;99669.09;;;4.20;53.04
61205;BME280;47068;55.780;37.520;2024-03-08T12:30:19;99665.63;;;4.09;53.16
61205;BME280;47068;55.780;37.520;2024-03-08T12:35:22;99668.34;;;3.86;53.44
61205;BME280;47068;55.780;37.520;2024-03-08T12:37:54;99667.72;;;3.83;53.63
61205;BME280;47068;55.780;37.520;2024-03-08T12:43:00;99651.81;;;3.84;53.50
61205;BME280;47068;55.780;37.520;2024-03-08T12:45:25;99651.84;;;3.73;53.00
61205;BME280;47068;55.780;37.520;2024-03-08T12:47:52;99656.88;;;3.43;53.97
61205;BME280;47068;55.780;37.520;2024-03-08T12:50:24;99650.66;;;3.44;54.54
61205;BME280;47068;55.780;37.520;2024-03-08T12:52:52;99653.28;;;3.55;54.46
61205;BME280;47068;55.780;37.520;2024-03-08T12:55:18;99647.41;;;3.63;54.79
61205;BME280;47068;55.780;37.520;2024-03-08T12:57:43;99651.00;;;3.73;54.20
61205;BME280;47068;55.780;37.520;2024-03-08T13:00:09;99664.16;;;3.84;53.66
61205;BME280;47068;55.780;37.520;2024-03-08T13:02:38;99665.34;;;3.80;53.43
61205;BME280;47068;55.780;37.520;2024-03-08T13:05:04;99667.50;;;3.75;53.49